createdAt,value
2019-02-28T00:00:49.202Z,4.80
2019-02-28T00:01:49.195Z,5.20
2019-02-28T00:02:49.210Z,4.20
2019-02-28T00:03:49.171Z,5.00
2019-02-28T00:04:49.161Z,4.50
2019-02-28T00:05:49.195Z,4.50
2019-02-28T00:06:49.137Z,4.60
2019-02-28T00:07:49.850Z,5.70
2019-02-28T00:08:51.029Z,4.80
2019-02-28T00:09:49.103Z,4.40
2019-02-28T00:10:49.097Z,4.80
2019-02-28T00:11:49.134Z,5.20
2019-02-28T00:12:49.073Z,5.00
2019-02-28T00:13:49.086Z,5.20
2019-02-28T00:14:49.048Z,4.60
2019-02-28T00:15:49.039Z,4.70
2019-02-28T00:16:49.027Z,5.20
2019-02-28T00:17:49.070Z,4.20
2019-02-28T00:18:49.978Z,5.00
2019-02-28T00:19:48.996Z,4.50
2019-02-28T00:20:48.987Z,5.40
2019-02-28T00:21:48.981Z,4.40
2019-02-28T00:22:49.434Z,5.30
2019-02-28T00:23:49.001Z,5.20
2019-02-28T00:24:48.945Z,5.10
2019-02-28T00:25:48.931Z,4.70
2019-02-28T00:26:48.944Z,4.70
2019-02-28T00:27:48.909Z,5.60
2019-02-28T00:28:48.927Z,5.90
2019-02-28T00:29:48.940Z,5.40
2019-02-28T00:30:48.880Z,5.70
2019-02-28T00:31:50.054Z,5.50
2019-02-28T00:32:48.856Z,5.90
2019-02-28T00:33:48.876Z,6.00
2019-02-28T00:34:48.837Z,6.10
2019-02-28T00:35:48.825Z,5.50
2019-02-28T00:36:50.354Z,6.00
2019-02-28T00:37:48.800Z,5.70
2019-02-28T00:38:48.815Z,5.50
2019-02-28T00:39:48.780Z,6.00
2019-02-28T00:40:48.771Z,6.10
2019-02-28T00:41:48.759Z,5.90
2019-02-28T00:42:50.903Z,6.80
2019-02-28T00:43:48.764Z,6.30
2019-02-28T00:44:48.723Z,6.30
2019-02-28T00:45:48.713Z,6.00
2019-02-28T00:46:48.702Z,6.20
2019-02-28T00:47:48.702Z,6.50
2019-02-28T00:48:48.759Z,6.50
2019-02-28T00:49:48.671Z,6.50
2019-02-28T00:50:48.661Z,6.20
2019-02-28T00:51:48.651Z,6.10
2019-02-28T00:52:48.644Z,6.30
2019-02-28T00:53:48.684Z,5.20
2019-02-28T00:54:48.645Z,5.30
2019-02-28T00:55:48.624Z,6.10
2019-02-28T00:56:52.488Z,6.00
2019-02-28T00:57:48.590Z,5.70
2019-02-28T00:58:48.578Z,4.90
2019-02-28T00:59:48.595Z,5.30
2019-02-28T01:00:48.553Z,5.40
2019-02-28T01:01:48.592Z,6.00
2019-02-28T01:02:52.090Z,6.30
2019-02-28T01:03:48.521Z,5.30
2019-02-28T01:04:48.542Z,6.00
2019-02-28T01:05:48.500Z,5.70
2019-02-28T01:06:48.490Z,5.80
2019-02-28T01:07:49.084Z,6.40
2019-02-28T01:08:48.508Z,7.40
2019-02-28T01:09:48.487Z,5.70
2019-02-28T01:10:48.446Z,6.20
2019-02-28T01:11:48.433Z,5.80
2019-02-28T01:12:53.118Z,6.50
2019-02-28T01:13:49.412Z,6.80
2019-02-28T01:14:48.426Z,6.30
2019-02-28T01:15:48.419Z,6.70
2019-02-28T01:16:50.271Z,6.30
2019-02-28T01:17:48.371Z,5.40
2019-02-28T01:18:48.377Z,6.00
2019-02-28T01:19:48.388Z,5.90
2019-02-28T01:20:50.700Z,6.60
2019-02-28T01:21:48.362Z,7.30
2019-02-28T01:22:48.315Z,5.90
2019-02-28T01:23:48.302Z,5.70
2019-02-28T01:24:48.314Z,6.10
2019-02-28T01:25:48.286Z,5.80
2019-02-28T01:26:48.272Z,5.00
2019-02-28T01:27:48.293Z,6.00
2019-02-28T01:28:48.251Z,6.80
2019-02-28T01:29:48.260Z,6.30
2019-02-28T01:30:48.234Z,5.80
2019-02-28T01:31:48.218Z,6.90
2019-02-28T01:32:50.856Z,6.70
2019-02-28T01:33:48.220Z,5.80
2019-02-28T01:34:48.206Z,5.80
2019-02-28T01:35:48.173Z,6.10
2019-02-28T01:36:48.806Z,6.50
2019-02-28T01:37:48.151Z,6.50
2019-02-28T01:38:48.138Z,6.60
2019-02-28T01:39:48.210Z,6.40
2019-02-28T01:40:48.120Z,6.60
2019-02-28T01:41:48.110Z,6.80
2019-02-28T01:42:48.099Z,6.60
2019-02-28T01:43:48.087Z,6.00
2019-02-28T01:44:48.103Z,6.30
2019-02-28T01:45:48.122Z,7.30
2019-02-28T01:46:48.716Z,6.30
2019-02-28T01:47:48.068Z,6.60
2019-02-28T01:48:48.032Z,7.10
2019-02-28T01:49:48.047Z,7.20
2019-02-28T01:50:48.013Z,6.60
2019-02-28T01:51:48.005Z,6.90
2019-02-28T01:52:48.052Z,6.90
2019-02-28T01:53:50.406Z,6.40
2019-02-28T01:54:49.114Z,6.50
2019-02-28T01:55:47.955Z,6.80
2019-02-28T01:56:47.961Z,6.50
2019-02-28T01:57:47.937Z,6.20
2019-02-28T01:58:50.368Z,7.00
2019-02-28T01:59:47.911Z,6.40
2019-02-28T02:00:47.923Z,6.20
2019-02-28T02:01:47.896Z,6.30
2019-02-28T02:02:47.880Z,6.60
2019-02-28T02:03:47.869Z,6.20
2019-02-28T02:04:47.881Z,6.30
2019-02-28T02:05:48.297Z,6.00
2019-02-28T02:06:47.850Z,6.40
2019-02-28T02:07:47.829Z,6.40
2019-02-28T02:08:47.817Z,6.30
2019-02-28T02:09:47.810Z,5.90
2019-02-28T02:10:47.887Z,6.70
2019-02-28T02:11:47.785Z,6.40
2019-02-28T02:12:47.788Z,6.00
2019-02-28T02:13:47.765Z,5.90
2019-02-28T02:14:47.756Z,6.10
2019-02-28T02:15:50.813Z,6.20
2019-02-28T02:16:47.729Z,6.30
2019-02-28T02:17:47.776Z,6.40
2019-02-28T02:18:47.709Z,6.10
2019-02-28T02:19:49.408Z,6.40
2019-02-28T02:20:47.717Z,6.20
2019-02-28T02:21:47.680Z,6.60
2019-02-28T02:22:47.666Z,7.10
2019-02-28T02:23:49.579Z,6.50
2019-02-28T02:24:48.642Z,6.10
2019-02-28T02:25:47.655Z,6.60
2019-02-28T02:26:47.621Z,6.20
2019-02-28T02:27:52.792Z,7.60
2019-02-28T02:28:48.602Z,6.60
2019-02-28T02:29:47.646Z,6.40
2019-02-28T02:30:50.908Z,6.80
2019-02-28T02:31:47.568Z,6.50
2019-02-28T02:32:47.555Z,6.50
2019-02-28T02:33:52.433Z,5.70
2019-02-28T02:34:48.535Z,7.40
2019-02-28T02:35:47.550Z,7.30
2019-02-28T02:36:52.985Z,7.10
2019-02-28T02:37:48.499Z,6.00
2019-02-28T02:38:47.494Z,6.80
2019-02-28T02:39:50.142Z,6.80
2019-02-28T02:40:47.491Z,7.50
2019-02-28T02:41:47.456Z,6.60
2019-02-28T02:42:49.753Z,6.90
2019-02-28T02:43:47.474Z,6.60
2019-02-28T02:44:47.421Z,7.00
2019-02-28T02:45:47.447Z,6.80
2019-02-28T02:46:47.405Z,7.10
2019-02-28T02:47:47.392Z,6.50
2019-02-28T02:48:47.380Z,6.10
2019-02-28T02:49:47.410Z,6.40
2019-02-28T02:50:47.358Z,6.30
2019-02-28T02:51:50.545Z,6.40
2019-02-28T02:52:47.336Z,6.10
2019-02-28T02:53:47.325Z,6.80
2019-02-28T02:54:47.312Z,6.70
2019-02-28T02:55:47.362Z,6.90
2019-02-28T02:56:47.321Z,6.10
2019-02-28T02:57:51.787Z,6.40
2019-02-28T02:58:47.267Z,6.50
2019-02-28T02:59:47.255Z,6.80
2019-02-28T03:00:51.187Z,7.20
2019-02-28T03:01:47.263Z,7.10
2019-02-28T03:02:47.278Z,7.20
2019-02-28T03:03:47.217Z,7.00
2019-02-28T03:04:47.202Z,6.90
2019-02-28T03:05:47.190Z,7.00
2019-02-28T03:06:47.209Z,7.20
2019-02-28T03:07:47.183Z,7.70
2019-02-28T03:08:47.200Z,7.30
2019-02-28T03:09:47.147Z,7.70
2019-02-28T03:10:47.147Z,6.80
2019-02-28T03:11:47.150Z,6.40
2019-02-28T03:12:47.125Z,6.40
2019-02-28T03:13:47.108Z,6.30
2019-02-28T03:14:48.747Z,7.10
2019-02-28T03:15:47.112Z,7.10
2019-02-28T03:16:47.095Z,7.40
2019-02-28T03:17:48.639Z,7.00
2019-02-28T03:18:47.049Z,7.40
2019-02-28T03:19:47.037Z,7.20
2019-02-28T03:20:47.032Z,7.50
2019-02-28T03:21:51.292Z,6.90
2019-02-28T03:22:47.014Z,7.60
2019-02-28T03:23:46.996Z,7.10
2019-02-28T03:24:50.734Z,6.90
2019-02-28T03:25:47.968Z,7.30
2019-02-28T03:26:46.997Z,6.80
2019-02-28T03:27:46.950Z,7.70
2019-02-28T03:28:46.977Z,6.90
2019-02-28T03:29:46.927Z,7.10
2019-02-28T03:30:46.917Z,6.80
2019-02-28T03:31:55.422Z,7.00
2019-02-28T03:32:47.929Z,7.30
2019-02-28T03:33:46.883Z,6.80
2019-02-28T03:34:54.782Z,9.30
2019-02-28T03:35:47.893Z,7.80
2019-02-28T03:36:55.166Z,7.50
2019-02-28T03:37:47.837Z,7.40
2019-02-28T03:38:49.788Z,8.00
2019-02-28T03:39:46.815Z,6.90
2019-02-28T03:40:46.803Z,6.60
2019-02-28T03:41:49.087Z,7.00
2019-02-28T03:42:47.837Z,7.50
2019-02-28T03:43:46.783Z,7.60
2019-02-28T03:44:46.760Z,7.90
2019-02-28T03:45:46.749Z,7.60
2019-02-28T03:46:47.947Z,7.90
2019-02-28T03:47:46.729Z,7.70
2019-02-28T03:48:46.775Z,6.90
2019-02-28T03:49:49.903Z,8.10
2019-02-28T03:50:46.692Z,8.00
2019-02-28T03:51:46.681Z,7.70
2019-02-28T03:52:46.695Z,8.40
2019-02-28T03:53:46.666Z,8.40
2019-02-28T03:54:46.717Z,7.70
2019-02-28T03:55:46.648Z,7.70
2019-02-28T03:56:51.233Z,8.10
2019-02-28T03:57:47.640Z,7.70
2019-02-28T03:58:46.633Z,7.80
2019-02-28T03:59:46.598Z,7.20
2019-02-28T04:00:46.626Z,6.70
2019-02-28T04:01:46.628Z,7.40
2019-02-28T04:02:46.596Z,7.40
2019-02-28T04:03:46.547Z,7.60
2019-02-28T04:04:50.192Z,7.50
2019-02-28T04:05:46.525Z,7.80
2019-02-28T04:06:46.581Z,7.60
2019-02-28T04:07:52.883Z,7.70
2019-02-28T04:08:47.491Z,7.40
2019-02-28T04:09:46.483Z,8.10
2019-02-28T04:10:46.477Z,8.40
2019-02-28T04:11:46.461Z,7.60
2019-02-28T04:12:47.089Z,7.40
2019-02-28T04:13:46.451Z,8.10
2019-02-28T04:14:46.431Z,8.70
2019-02-28T04:16:01.443Z,8.00
2019-02-28T04:16:52.488Z,8.60
2019-02-28T04:17:47.420Z,7.60
2019-02-28T04:18:46.855Z,9.00
2019-02-28T04:19:46.372Z,7.90
2019-02-28T04:20:46.377Z,8.40
2019-02-28T04:21:47.713Z,9.00
2019-02-28T04:22:46.368Z,8.60
2019-02-28T04:23:46.328Z,9.50
2019-02-28T04:24:47.492Z,9.50
2019-02-28T04:25:46.304Z,12.20
2019-02-28T04:26:46.310Z,8.50
2019-02-28T04:27:46.305Z,9.00
2019-02-28T04:28:46.275Z,9.30
2019-02-28T04:29:46.273Z,9.00
2019-02-28T04:30:46.285Z,8.80
2019-02-28T04:31:46.237Z,9.60
2019-02-28T04:32:46.249Z,9.30
2019-02-28T04:33:46.215Z,8.80
2019-02-28T04:34:49.212Z,8.70
2019-02-28T04:35:46.190Z,8.60
2019-02-28T04:36:46.229Z,8.10
2019-02-28T04:37:47.266Z,9.30
2019-02-28T04:38:46.160Z,8.90
2019-02-28T04:39:46.156Z,10.20
2019-02-28T04:40:46.135Z,9.90
2019-02-28T04:41:46.131Z,10.30
2019-02-28T04:42:46.152Z,10.50
2019-02-28T04:43:46.165Z,10.00
2019-02-28T04:44:46.096Z,9.90
2019-02-28T04:45:46.080Z,9.60
2019-02-28T04:46:46.073Z,9.60
2019-02-28T04:47:46.060Z,9.60
2019-02-28T04:48:48.454Z,11.60
2019-02-28T04:49:46.061Z,11.10
2019-02-28T04:50:46.025Z,10.70
2019-02-28T04:51:46.028Z,10.50
2019-02-28T04:52:48.022Z,10.50
2019-02-28T04:53:46.014Z,9.80
2019-02-28T04:54:45.979Z,9.90
2019-02-28T04:55:46.045Z,11.00
2019-02-28T04:56:46.561Z,12.10
2019-02-28T04:57:45.947Z,10.40
2019-02-28T04:58:45.959Z,13.30
2019-02-28T04:59:45.929Z,10.30
2019-02-28T05:00:45.917Z,12.30
2019-02-28T05:01:46.453Z,10.30
2019-02-28T05:02:45.895Z,10.00
2019-02-28T05:03:45.912Z,10.50
2019-02-28T05:04:45.871Z,9.20
2019-02-28T05:05:46.928Z,9.80
2019-02-28T05:06:45.851Z,10.30
2019-02-28T05:07:45.938Z,10.90
2019-02-28T05:08:45.853Z,11.50
2019-02-28T05:09:48.148Z,10.60
2019-02-28T05:10:45.821Z,11.40
2019-02-28T05:11:45.800Z,11.90
2019-02-28T05:12:45.783Z,10.90
2019-02-28T05:13:48.718Z,10.40
2019-02-28T05:14:45.769Z,10.60
2019-02-28T05:15:45.760Z,10.90
2019-02-28T05:16:47.535Z,10.50
2019-02-28T05:17:45.729Z,11.40
2019-02-28T05:18:45.776Z,14.30
2019-02-28T05:19:45.750Z,10.80
2019-02-28T05:20:46.114Z,10.00
2019-02-28T05:21:45.692Z,10.50
2019-02-28T05:22:45.675Z,10.60
2019-02-28T05:23:45.690Z,11.20
2019-02-28T05:24:45.656Z,11.10
2019-02-28T05:25:45.642Z,12.00
2019-02-28T05:26:45.694Z,12.60
2019-02-28T05:27:45.625Z,11.90
2019-02-28T05:28:45.647Z,11.80
2019-02-28T05:29:45.600Z,11.70
2019-02-28T05:30:45.590Z,11.30
2019-02-28T05:31:45.581Z,13.30
2019-02-28T05:32:45.617Z,13.10
2019-02-28T05:33:45.592Z,14.00
2019-02-28T05:34:47.389Z,12.40
2019-02-28T05:35:46.537Z,11.90
2019-02-28T05:36:45.533Z,12.40
2019-02-28T05:37:48.132Z,14.80
2019-02-28T05:38:45.533Z,13.70
2019-02-28T05:39:45.547Z,13.70
2019-02-28T05:40:45.497Z,13.40
2019-02-28T05:41:48.927Z,12.80
2019-02-28T05:42:45.465Z,12.70
2019-02-28T05:43:45.479Z,11.70
2019-02-28T05:44:45.444Z,12.00
2019-02-28T05:45:48.689Z,12.30
2019-02-28T05:46:45.419Z,12.30
2019-02-28T05:47:47.100Z,12.20
2019-02-28T05:48:45.435Z,12.60
2019-02-28T05:49:45.384Z,12.10
2019-02-28T05:50:46.817Z,11.20
2019-02-28T05:51:45.364Z,12.10
2019-02-28T05:52:45.378Z,13.00
2019-02-28T05:53:45.347Z,13.20
2019-02-28T05:54:47.209Z,13.60
2019-02-28T05:55:45.326Z,14.00
2019-02-28T05:56:45.313Z,14.20
2019-02-28T05:57:45.299Z,13.70
2019-02-28T05:58:45.330Z,15.80
2019-02-28T05:59:45.302Z,15.40
2019-02-28T06:00:45.272Z,16.50
2019-02-28T06:01:47.045Z,18.60
2019-02-28T06:02:45.258Z,19.10
2019-02-28T06:03:45.238Z,18.70
2019-02-28T06:04:45.247Z,19.40
2019-02-28T06:05:46.425Z,19.00
2019-02-28T06:06:45.205Z,18.00
2019-02-28T06:07:45.209Z,18.60
2019-02-28T06:08:45.184Z,18.70
2019-02-28T06:09:45.614Z,21.50
2019-02-28T06:10:45.162Z,21.40
2019-02-28T06:11:45.215Z,20.00
2019-02-28T06:12:45.197Z,22.20
2019-02-28T06:13:45.142Z,20.90
2019-02-28T06:14:45.159Z,21.40
2019-02-28T06:15:45.106Z,16.10
2019-02-28T06:16:46.880Z,19.30
2019-02-28T06:17:45.126Z,18.30
2019-02-28T06:18:45.076Z,16.10
2019-02-28T06:19:45.092Z,17.00
2019-02-28T06:20:45.055Z,20.60
2019-02-28T06:21:45.043Z,14.60
2019-02-28T06:22:45.039Z,14.90
2019-02-28T06:23:45.071Z,16.10
2019-02-28T06:24:45.915Z,22.20
2019-02-28T06:25:45.003Z,14.80
2019-02-28T06:26:44.993Z,17.30
2019-02-28T06:27:49.032Z,14.60
2019-02-28T06:28:45.980Z,15.70
2019-02-28T06:29:44.993Z,16.40
2019-02-28T06:30:44.949Z,16.00
2019-02-28T06:31:45.554Z,16.60
2019-02-28T06:32:44.966Z,16.20
2019-02-28T06:33:44.952Z,16.60
2019-02-28T06:34:44.934Z,15.30
2019-02-28T06:35:44.898Z,15.50
2019-02-28T06:36:44.895Z,13.90
2019-02-28T06:37:44.949Z,14.80
2019-02-28T06:38:44.868Z,14.00
2019-02-28T06:39:44.895Z,17.30
2019-02-28T06:40:44.844Z,14.60
2019-02-28T06:41:44.837Z,14.50
2019-02-28T06:42:46.713Z,14.30
2019-02-28T06:43:44.842Z,13.90
2019-02-28T06:44:44.810Z,14.60
2019-02-28T06:45:44.820Z,13.90
2019-02-28T06:46:44.789Z,16.10
2019-02-28T06:47:47.987Z,14.50
2019-02-28T06:48:44.762Z,13.80
2019-02-28T06:49:44.786Z,13.70
2019-02-28T06:50:45.598Z,13.90
2019-02-28T06:51:44.728Z,14.00
2019-02-28T06:52:44.712Z,15.30
2019-02-28T06:53:44.708Z,13.50
2019-02-28T06:54:44.720Z,14.30
2019-02-28T06:55:46.423Z,13.90
2019-02-28T06:56:44.668Z,13.00
2019-02-28T06:57:44.686Z,14.80
2019-02-28T06:58:44.648Z,14.10
2019-02-28T06:59:44.649Z,14.50
2019-02-28T07:00:47.422Z,13.90
2019-02-28T07:01:44.616Z,14.10
2019-02-28T07:02:44.654Z,16.00
2019-02-28T07:03:53.297Z,17.10
2019-02-28T07:04:49.456Z,17.00
2019-02-28T07:05:44.595Z,17.70
2019-02-28T07:06:44.563Z,15.30
2019-02-28T07:07:45.695Z,16.00
2019-02-28T07:08:44.549Z,16.20
2019-02-28T07:09:44.558Z,16.10
2019-02-28T07:10:44.976Z,18.30
2019-02-28T07:11:44.506Z,18.30
2019-02-28T07:12:44.680Z,19.20
2019-02-28T07:13:44.500Z,15.60
2019-02-28T07:14:48.618Z,17.10
2019-02-28T07:15:45.484Z,15.90
2019-02-28T07:16:44.478Z,17.90
2019-02-28T07:17:46.434Z,19.10
2019-02-28T07:18:44.428Z,15.60
2019-02-28T07:19:44.417Z,14.30
2019-02-28T07:20:44.447Z,15.10
2019-02-28T07:21:44.490Z,15.30
2019-02-28T07:22:44.399Z,16.70
2019-02-28T07:23:44.372Z,17.20
2019-02-28T07:24:44.362Z,16.50
2019-02-28T07:25:47.309Z,16.50
2019-02-28T07:26:44.347Z,15.90
2019-02-28T07:27:44.329Z,14.60
2019-02-28T07:28:44.338Z,15.40
2019-02-28T07:29:44.308Z,15.90
2019-02-28T07:30:44.321Z,15.20
2019-02-28T07:31:44.286Z,14.90
2019-02-28T07:32:44.283Z,14.90
2019-02-28T07:33:44.631Z,15.00
2019-02-28T07:34:44.269Z,14.90
2019-02-28T07:35:44.273Z,14.60
2019-02-28T07:36:44.751Z,13.70
2019-02-28T07:37:44.218Z,14.10
2019-02-28T07:38:44.208Z,14.30
2019-02-28T07:39:44.197Z,14.30
2019-02-28T07:40:45.668Z,15.00
2019-02-28T07:41:44.198Z,14.20
2019-02-28T07:42:44.163Z,13.80
2019-02-28T07:43:46.115Z,14.50
2019-02-28T07:44:44.150Z,14.50
2019-02-28T07:45:44.130Z,14.30
2019-02-28T07:46:44.151Z,15.30
2019-02-28T07:47:44.118Z,15.30
2019-02-28T07:48:44.100Z,15.30
2019-02-28T07:49:44.088Z,16.30
2019-02-28T07:50:46.706Z,18.20
2019-02-28T07:51:44.088Z,18.20
2019-02-28T07:52:44.067Z,18.90
2019-02-28T07:53:44.064Z,17.60
2019-02-28T07:54:44.044Z,19.80
2019-02-28T07:55:44.024Z,18.90
2019-02-28T07:56:44.365Z,19.50
2019-02-28T07:57:44.010Z,20.40
2019-02-28T07:58:44.004Z,19.00
2019-02-28T07:59:44.008Z,19.20
2019-02-28T08:00:43.969Z,18.50
2019-02-28T08:01:43.988Z,19.40
2019-02-28T08:02:43.947Z,20.90
2019-02-28T08:03:44.908Z,20.50
2019-02-28T08:04:43.927Z,21.00
2019-02-28T08:05:43.927Z,20.40
2019-02-28T08:06:43.926Z,19.10
2019-02-28T08:07:50.309Z,20.40
2019-02-28T08:08:44.896Z,19.30
2019-02-28T08:09:43.869Z,19.10
2019-02-28T08:10:43.857Z,17.50
2019-02-28T08:11:43.893Z,17.80
2019-02-28T08:12:43.835Z,19.20
2019-02-28T08:13:43.824Z,19.00
2019-02-28T08:14:47.069Z,19.40
2019-02-28T08:15:43.803Z,20.20
2019-02-28T08:16:43.815Z,20.20
2019-02-28T08:17:44.659Z,20.80
2019-02-28T08:18:43.779Z,20.40
2019-02-28T08:19:43.768Z,20.40
2019-02-28T08:20:43.749Z,19.80
2019-02-28T08:21:47.617Z,21.50
2019-02-28T08:22:44.736Z,19.90
2019-02-28T08:23:43.718Z,20.20
2019-02-28T08:24:43.727Z,20.10
2019-02-28T08:25:43.694Z,20.90
2019-02-28T08:26:43.807Z,19.10
2019-02-28T08:27:43.671Z,19.80
2019-02-28T08:28:43.662Z,19.00
2019-02-28T08:29:45.804Z,21.70
2019-02-28T08:30:43.694Z,21.30
2019-02-28T08:31:43.648Z,21.60
2019-02-28T08:32:46.808Z,21.40
2019-02-28T08:33:43.604Z,20.50
2019-02-28T08:34:43.616Z,20.70
2019-02-28T08:35:43.583Z,21.80
2019-02-28T08:36:46.942Z,20.30
2019-02-28T08:37:43.561Z,22.60
2019-02-28T08:38:43.804Z,19.60
2019-02-28T08:39:43.549Z,23.50
2019-02-28T08:40:43.529Z,22.70
2019-02-28T08:41:43.519Z,21.80
2019-02-28T08:42:43.558Z,21.50
2019-02-28T08:43:44.571Z,21.30
2019-02-28T08:44:43.518Z,22.40
2019-02-28T08:45:43.488Z,21.70
2019-02-28T08:46:46.245Z,21.50
2019-02-28T08:47:43.699Z,22.70
2019-02-28T08:48:44.213Z,23.30
2019-02-28T08:49:45.508Z,23.90
2019-02-28T08:50:43.424Z,26.20
2019-02-28T08:51:43.423Z,27.90
2019-02-28T08:52:43.427Z,28.00
2019-02-28T08:53:43.388Z,30.30
2019-02-28T08:54:43.379Z,29.50
2019-02-28T08:55:44.395Z,30.10
2019-02-28T08:56:46.160Z,29.90
2019-02-28T08:57:44.462Z,30.10
2019-02-28T08:58:43.331Z,29.10
2019-02-28T08:59:43.321Z,31.80
2019-02-28T09:00:43.329Z,28.70
2019-02-28T09:01:44.253Z,28.70
2019-02-28T09:02:43.342Z,30.90
2019-02-28T09:03:43.307Z,30.40
2019-02-28T09:04:44.961Z,28.80
2019-02-28T09:05:43.254Z,31.30
2019-02-28T09:06:43.252Z,32.10
2019-02-28T09:07:43.295Z,31.80
2019-02-28T09:08:43.248Z,30.90
2019-02-28T09:09:43.214Z,27.20
2019-02-28T09:10:43.704Z,29.70
2019-02-28T09:11:43.186Z,29.10
2019-02-28T09:12:43.200Z,30.30
2019-02-28T09:13:43.638Z,29.50
2019-02-28T09:14:43.154Z,30.60
2019-02-28T09:15:43.166Z,29.40
2019-02-28T09:16:43.130Z,30.60
2019-02-28T09:17:43.152Z,28.70
2019-02-28T09:18:44.800Z,28.60
2019-02-28T09:19:43.100Z,31.40
2019-02-28T09:20:45.095Z,29.60
2019-02-28T09:21:43.087Z,29.60
2019-02-28T09:22:43.069Z,29.50
2019-02-28T09:23:43.080Z,30.90
2019-02-28T09:24:43.680Z,30.10
2019-02-28T09:25:43.035Z,29.80
2019-02-28T09:26:43.032Z,29.30
2019-02-28T09:27:43.078Z,30.20
2019-02-28T09:28:44.464Z,30.20
2019-02-28T09:29:42.992Z,30.10
2019-02-28T09:30:42.980Z,27.10
2019-02-28T09:31:42.970Z,27.30
2019-02-28T09:32:45.203Z,28.10
2019-02-28T09:33:44.074Z,29.00
2019-02-28T09:34:42.952Z,29.40
2019-02-28T09:35:46.275Z,28.50
2019-02-28T09:36:42.934Z,29.20
2019-02-28T09:37:42.904Z,29.30
2019-02-28T09:38:45.296Z,29.60
2019-02-28T09:39:42.892Z,28.60
2019-02-28T09:40:42.875Z,29.60
2019-02-28T09:41:42.892Z,28.70
2019-02-28T09:42:44.520Z,28.50
2019-02-28T09:43:43.128Z,26.50
2019-02-28T09:44:42.859Z,28.00
2019-02-28T09:45:42.818Z,27.50
2019-02-28T09:46:42.808Z,30.50
2019-02-28T09:47:42.830Z,26.60
2019-02-28T09:48:42.854Z,26.20
2019-02-28T09:49:44.268Z,29.40
2019-02-28T09:50:43.149Z,28.50
2019-02-28T09:51:42.792Z,29.00
2019-02-28T09:52:42.748Z,28.60
2019-02-28T09:53:42.862Z,27.10
2019-02-28T09:54:42.744Z,28.10
2019-02-28T09:55:42.709Z,28.20
2019-02-28T09:56:44.591Z,28.90
2019-02-28T09:57:42.690Z,27.10
2019-02-28T09:58:42.898Z,30.10
2019-02-28T09:59:42.706Z,29.20
2019-02-28T10:00:43.334Z,31.20
2019-02-28T10:01:42.654Z,27.30
2019-02-28T10:02:43.985Z,28.30
2019-02-28T10:03:42.654Z,29.90
2019-02-28T10:04:42.615Z,29.70
2019-02-28T10:05:43.312Z,29.60
2019-02-28T10:06:42.646Z,30.50
2019-02-28T10:07:42.647Z,29.30
2019-02-28T10:08:42.615Z,29.80
2019-02-28T10:09:44.425Z,29.50
2019-02-28T10:10:42.549Z,30.10
2019-02-28T10:11:42.537Z,28.00
2019-02-28T10:12:43.220Z,28.70
2019-02-28T10:13:42.572Z,28.40
2019-02-28T10:14:42.512Z,30.80
2019-02-28T10:15:42.538Z,28.40
2019-02-28T10:16:42.507Z,28.60
2019-02-28T10:17:42.482Z,26.40
2019-02-28T10:18:42.653Z,28.90
2019-02-28T10:19:45.761Z,29.30
2019-02-28T10:20:42.491Z,26.20
2019-02-28T10:21:42.422Z,27.50
2019-02-28T10:22:44.415Z,27.40
2019-02-28T10:23:42.908Z,26.00
2019-02-28T10:24:42.553Z,29.30
2019-02-28T10:25:43.696Z,29.30
2019-02-28T10:26:42.370Z,28.60
2019-02-28T10:27:42.372Z,28.40
2019-02-28T10:28:42.348Z,28.50
2019-02-28T10:29:42.729Z,28.90
2019-02-28T10:30:42.336Z,27.80
2019-02-28T10:31:42.612Z,30.50
2019-02-28T10:32:43.339Z,29.80
2019-02-28T10:33:42.316Z,30.50
2019-02-28T10:34:42.327Z,29.70
2019-02-28T10:35:42.271Z,31.80
2019-02-28T10:36:44.391Z,33.40
2019-02-28T10:37:43.418Z,30.60
2019-02-28T10:38:42.575Z,33.20
2019-02-28T10:39:43.811Z,34.10
2019-02-28T10:40:42.218Z,33.60
2019-02-28T10:41:42.237Z,33.20
2019-02-28T10:42:42.197Z,33.50
2019-02-28T10:43:42.225Z,31.70
2019-02-28T10:44:42.275Z,32.80
2019-02-28T10:45:42.328Z,34.20
2019-02-28T10:46:42.151Z,33.00
2019-02-28T10:47:42.179Z,32.70
2019-02-28T10:48:50.637Z,33.30
2019-02-28T10:49:43.143Z,33.50
2019-02-28T10:50:42.128Z,33.50
2019-02-28T10:51:44.662Z,31.30
2019-02-28T10:52:43.083Z,32.60
2019-02-28T10:53:42.230Z,34.10
2019-02-28T10:54:42.945Z,31.90
2019-02-28T10:55:42.628Z,32.00
2019-02-28T10:56:42.058Z,31.60
2019-02-28T10:57:42.048Z,32.20
2019-02-28T10:58:42.018Z,33.20
2019-02-28T10:59:42.127Z,32.90
2019-02-28T11:00:41.993Z,32.60
2019-02-28T11:01:42.688Z,33.00
2019-02-28T11:02:42.017Z,33.40
2019-02-28T11:03:42.036Z,31.70
2019-02-28T11:04:43.828Z,33.10
2019-02-28T11:05:41.959Z,31.70
2019-02-28T11:06:42.206Z,32.50
2019-02-28T11:07:41.922Z,32.60
2019-02-28T11:08:44.463Z,32.10
2019-02-28T11:09:42.921Z,30.30
2019-02-28T11:10:41.934Z,32.00
2019-02-28T11:11:42.589Z,32.60
2019-02-28T11:12:41.890Z,33.80
2019-02-28T11:13:41.856Z,32.20
2019-02-28T11:14:41.892Z,31.80
2019-02-28T11:15:41.935Z,32.40
2019-02-28T11:16:41.818Z,33.30
2019-02-28T11:17:41.828Z,32.60
2019-02-28T11:18:42.711Z,32.50
2019-02-28T11:19:41.784Z,31.00
2019-02-28T11:20:41.839Z,32.60
2019-02-28T11:21:41.769Z,34.10
2019-02-28T11:22:41.751Z,31.80
2019-02-28T11:23:41.739Z,33.30
2019-02-28T11:24:41.728Z,31.90
2019-02-28T11:25:41.743Z,32.60
2019-02-28T11:26:44.763Z,31.80
2019-02-28T11:27:41.694Z,32.70
2019-02-28T11:28:41.689Z,33.60
2019-02-28T11:29:41.674Z,33.70
2019-02-28T11:30:44.751Z,34.10
2019-02-28T11:31:41.652Z,31.80
2019-02-28T11:32:41.667Z,32.70
2019-02-28T11:33:41.640Z,33.10
2019-02-28T11:34:41.619Z,33.10
2019-02-28T11:35:41.633Z,33.10
2019-02-28T11:36:41.594Z,33.00
2019-02-28T11:37:42.369Z,32.60
2019-02-28T11:38:41.580Z,32.10
2019-02-28T11:39:41.563Z,33.70
2019-02-28T11:40:43.954Z,31.70
2019-02-28T11:41:41.549Z,32.40
2019-02-28T11:42:41.536Z,33.20
2019-02-28T11:43:41.523Z,33.20
2019-02-28T11:44:46.275Z,32.50
2019-02-28T11:45:42.517Z,32.90
2019-02-28T11:46:41.485Z,31.10
2019-02-28T11:47:42.677Z,32.30
2019-02-28T11:48:41.463Z,32.30
2019-02-28T11:49:41.454Z,32.10
2019-02-28T11:50:44.727Z,31.10
2019-02-28T11:51:41.448Z,31.20
2019-02-28T11:52:41.419Z,30.20
2019-02-28T11:53:41.411Z,31.70
2019-02-28T11:54:41.410Z,30.40
2019-02-28T11:55:41.409Z,28.90
2019-02-28T11:56:41.379Z,30.80
2019-02-28T11:57:42.125Z,30.70
2019-02-28T11:58:41.365Z,30.10
2019-02-28T11:59:41.344Z,30.50
2019-02-28T12:00:41.357Z,29.60
2019-02-28T12:01:42.471Z,30.80
2019-02-28T12:02:42.308Z,29.90
2019-02-28T12:03:41.313Z,29.70
2019-02-28T12:04:41.318Z,30.40
2019-02-28T12:05:41.310Z,29.90
2019-02-28T12:06:41.264Z,30.20
2019-02-28T12:07:41.253Z,28.50
2019-02-28T12:08:41.657Z,30.10
2019-02-28T12:09:41.248Z,30.00
2019-02-28T12:10:41.220Z,29.70
2019-02-28T12:11:41.235Z,29.70
2019-02-28T12:12:41.574Z,28.60
2019-02-28T12:13:41.188Z,30.20
2019-02-28T12:14:41.176Z,30.30
2019-02-28T12:15:41.200Z,29.70
2019-02-28T12:16:41.179Z,29.90
2019-02-28T12:17:41.144Z,28.50
2019-02-28T12:18:41.139Z,29.70
2019-02-28T12:19:41.126Z,29.10
2019-02-28T12:20:41.118Z,29.90
2019-02-28T12:21:41.284Z,29.80
2019-02-28T12:22:44.003Z,29.00
2019-02-28T12:23:42.075Z,24.80
2019-02-28T12:24:41.070Z,27.50
2019-02-28T12:25:42.927Z,26.50
2019-02-28T12:26:41.067Z,22.70
2019-02-28T12:27:41.049Z,23.00
2019-02-28T12:28:41.022Z,22.90
2019-02-28T12:29:41.011Z,22.40
2019-02-28T12:30:41.000Z,21.40
2019-02-28T12:31:41.015Z,23.40
2019-02-28T12:32:43.344Z,21.80
2019-02-28T12:33:41.001Z,22.30
2019-02-28T12:34:40.961Z,22.40
2019-02-28T12:35:40.945Z,22.30
2019-02-28T12:36:40.957Z,21.20
2019-02-28T12:37:40.924Z,22.40
2019-02-28T12:38:40.931Z,23.80
2019-02-28T12:39:40.922Z,21.00
2019-02-28T12:40:42.618Z,23.70
2019-02-28T12:41:40.901Z,23.70
2019-02-28T12:42:40.867Z,23.90
2019-02-28T12:43:41.496Z,23.60
2019-02-28T12:44:40.846Z,23.00
2019-02-28T12:45:40.839Z,23.50
2019-02-28T12:46:40.890Z,23.50
2019-02-28T12:47:41.552Z,23.20
2019-02-28T12:48:40.801Z,23.80
2019-02-28T12:49:40.791Z,24.80
2019-02-28T12:50:40.779Z,22.90
2019-02-28T12:51:40.793Z,24.90
2019-02-28T12:52:40.788Z,23.70
2019-02-28T12:53:40.758Z,23.70
2019-02-28T12:54:40.763Z,23.10
2019-02-28T12:55:40.739Z,22.80
2019-02-28T12:56:40.736Z,23.20
2019-02-28T12:57:40.758Z,22.30
2019-02-28T12:58:41.728Z,23.70
2019-02-28T12:59:41.775Z,24.20
2019-02-28T13:00:41.669Z,24.60
2019-02-28T13:01:40.697Z,25.40